createdAt,value
2022-12-23T00:00:27.339Z,23.56
2022-12-23T00:00:57.419Z,23.53
2022-12-23T00:01:27.562Z,23.56
2022-12-23T00:01:57.742Z,23.54
2022-12-23T00:02:27.823Z,23.54
2022-12-23T00:02:57.849Z,23.56
2022-12-23T00:03:27.868Z,23.54
2022-12-23T00:03:57.900Z,23.56
2022-12-23T00:04:27.809Z,23.56
2022-12-23T00:04:57.872Z,23.54
2022-12-23T00:05:32.633Z,23.56
2022-12-23T00:05:58.023Z,23.53
2022-12-23T00:06:28.128Z,23.56
2022-12-23T00:06:58.202Z,23.53
2022-12-23T00:07:28.286Z,23.54
2022-12-23T00:07:58.379Z,23.54
2022-12-23T00:08:28.476Z,23.54
2022-12-23T00:08:59.201Z,23.53
2022-12-23T00:09:28.567Z,23.54
2022-12-23T00:09:58.644Z,23.54
2022-12-23T00:10:28.726Z,23.53
2022-12-23T00:10:58.813Z,23.54
2022-12-23T00:11:28.920Z,23.56
2022-12-23T00:11:59.019Z,23.54
2022-12-23T00:12:29.080Z,23.53
2022-12-23T00:12:59.177Z,23.56
2022-12-23T00:13:29.274Z,23.54
2022-12-23T00:13:59.353Z,23.54
2022-12-23T00:14:29.419Z,23.51
2022-12-23T00:14:59.519Z,23.54
2022-12-23T00:15:29.597Z,23.54
2022-12-23T00:15:59.723Z,23.51
2022-12-23T00:16:29.730Z,23.56
2022-12-23T00:16:59.834Z,23.51
2022-12-23T00:17:29.745Z,23.50
2022-12-23T00:17:59.820Z,23.53
2022-12-23T00:18:29.911Z,23.51
2022-12-23T00:18:59.981Z,23.53
2022-12-23T00:19:30.095Z,23.53
2022-12-23T00:20:00.228Z,23.54
2022-12-23T00:20:30.187Z,23.51
2022-12-23T00:21:06.664Z,23.53
2022-12-23T00:21:30.335Z,23.51
2022-12-23T00:22:00.427Z,23.51
2022-12-23T00:22:30.520Z,23.53
2022-12-23T00:23:00.595Z,23.51
2022-12-23T00:23:30.689Z,23.51
2022-12-23T00:24:00.784Z,23.50
2022-12-23T00:24:30.853Z,23.53
2022-12-23T00:25:00.937Z,23.50
2022-12-23T00:25:31.021Z,23.51
2022-12-23T00:26:01.107Z,23.49
2022-12-23T00:26:31.195Z,23.53
2022-12-23T00:27:01.277Z,23.50
2022-12-23T00:27:35.777Z,23.53
2022-12-23T00:28:01.578Z,23.50
2022-12-23T00:28:31.484Z,23.51
2022-12-23T00:29:01.567Z,23.51
2022-12-23T00:29:31.652Z,23.50
2022-12-23T00:30:01.744Z,23.50
2022-12-23T00:30:31.810Z,23.50
2022-12-23T00:31:01.896Z,23.50
2022-12-23T00:31:32.236Z,23.50
2022-12-23T00:32:02.118Z,23.50
2022-12-23T00:32:32.088Z,23.53
2022-12-23T00:33:02.187Z,23.50
2022-12-23T00:33:32.264Z,23.50
2022-12-23T00:34:02.357Z,23.51
2022-12-23T00:34:32.459Z,23.50
2022-12-23T00:35:02.518Z,23.49
2022-12-23T00:35:32.605Z,23.49
2022-12-23T00:36:02.769Z,23.50
2022-12-23T00:36:32.908Z,23.49
2022-12-23T00:37:02.839Z,23.49
2022-12-23T00:37:32.901Z,23.50
2022-12-23T00:38:02.988Z,23.49
2022-12-23T00:38:33.071Z,23.47
2022-12-23T00:39:03.151Z,23.49
2022-12-23T00:39:33.238Z,23.49
2022-12-23T00:40:06.779Z,23.50
2022-12-23T00:40:33.367Z,23.49
2022-12-23T00:41:03.477Z,23.47
2022-12-23T00:41:33.528Z,23.47
2022-12-23T00:42:03.618Z,23.49
2022-12-23T00:42:33.703Z,23.49
2022-12-23T00:43:03.784Z,23.49
2022-12-23T00:43:33.864Z,23.47
2022-12-23T00:44:03.952Z,23.49
2022-12-23T00:44:34.028Z,23.47
2022-12-23T00:45:04.066Z,23.47
2022-12-23T00:45:34.130Z,23.50
2022-12-23T00:46:04.333Z,23.47
2022-12-23T00:46:34.195Z,23.47
2022-12-23T00:47:04.249Z,23.46
2022-12-23T00:47:34.293Z,23.47
2022-12-23T00:48:04.344Z,23.50
2022-12-23T00:48:34.381Z,23.49
2022-12-23T00:49:04.409Z,23.49
2022-12-23T00:49:34.490Z,23.47
2022-12-23T00:50:04.499Z,23.47
2022-12-23T00:50:34.531Z,23.47
2022-12-23T00:51:04.567Z,23.49
2022-12-23T00:51:34.616Z,23.46
2022-12-23T00:52:04.661Z,23.47
2022-12-23T00:52:34.701Z,23.47
2022-12-23T00:53:04.749Z,23.49
2022-12-23T00:53:34.806Z,23.44
2022-12-23T00:54:04.857Z,23.46
2022-12-23T00:54:34.908Z,23.47
2022-12-23T00:55:04.992Z,23.44
2022-12-23T00:55:35.086Z,23.46
2022-12-23T00:56:05.163Z,23.49
2022-12-23T00:56:35.250Z,23.47
2022-12-23T00:57:05.324Z,23.46
2022-12-23T00:57:35.419Z,23.46
2022-12-23T00:58:05.506Z,23.49
2022-12-23T00:58:35.596Z,23.46
2022-12-23T00:59:05.685Z,23.44
2022-12-23T00:59:35.770Z,23.49
2022-12-23T01:00:05.849Z,23.46
2022-12-23T01:00:35.948Z,23.49
2022-12-23T01:01:06.075Z,23.49
2022-12-23T01:01:36.129Z,23.47
2022-12-23T01:02:06.322Z,23.46
2022-12-23T01:02:36.326Z,23.47
2022-12-23T01:03:06.274Z,23.46
2022-12-23T01:03:36.317Z,23.44
2022-12-23T01:04:06.296Z,23.46
2022-12-23T01:04:36.392Z,23.46
2022-12-23T01:05:06.478Z,23.44
2022-12-23T01:05:36.538Z,23.47
2022-12-23T01:06:06.630Z,23.44
2022-12-23T01:06:36.704Z,23.47
2022-12-23T01:07:06.792Z,23.44
2022-12-23T01:07:36.895Z,23.44
2022-12-23T01:08:06.951Z,23.43
2022-12-23T01:08:37.050Z,23.42
2022-12-23T01:09:07.127Z,23.46
2022-12-23T01:09:37.210Z,23.44
2022-12-23T01:10:07.285Z,23.44
2022-12-23T01:10:37.380Z,23.44
2022-12-23T01:11:07.470Z,23.44
2022-12-23T01:11:37.569Z,23.47
2022-12-23T01:12:07.631Z,23.43
2022-12-23T01:12:37.724Z,23.43
2022-12-23T01:13:07.802Z,23.42
2022-12-23T01:13:38.012Z,23.43
2022-12-23T01:14:07.974Z,23.43
2022-12-23T01:14:38.052Z,23.44
2022-12-23T01:15:08.134Z,23.42
2022-12-23T01:15:38.221Z,23.42
2022-12-23T01:16:13.305Z,23.42
2022-12-23T01:16:38.444Z,23.44
2022-12-23T01:17:08.524Z,23.42
2022-12-23T01:17:38.415Z,23.43
2022-12-23T01:18:08.503Z,23.44
2022-12-23T01:18:38.623Z,23.43
2022-12-23T01:19:08.601Z,23.43
2022-12-23T01:19:38.702Z,23.44
2022-12-23T01:20:08.784Z,23.44
2022-12-23T01:20:38.858Z,23.43
2022-12-23T01:21:08.939Z,23.44
2022-12-23T01:21:39.032Z,23.42
2022-12-23T01:22:09.120Z,23.42
2022-12-23T01:22:39.174Z,23.42
2022-12-23T01:23:09.265Z,23.44
2022-12-23T01:23:39.370Z,23.44
2022-12-23T01:24:09.459Z,23.42
2022-12-23T01:24:39.536Z,23.43
2022-12-23T01:25:09.605Z,23.40
2022-12-23T01:25:39.691Z,23.42
2022-12-23T01:26:09.772Z,23.40
2022-12-23T01:26:39.856Z,23.43
2022-12-23T01:27:09.935Z,23.40
2022-12-23T01:27:40.028Z,23.43
2022-12-23T01:28:10.104Z,23.42
2022-12-23T01:28:40.212Z,23.43
2022-12-23T01:29:10.287Z,23.43
2022-12-23T01:29:40.372Z,23.46
2022-12-23T01:30:10.467Z,23.43
2022-12-23T01:30:40.554Z,23.44
2022-12-23T01:31:10.632Z,23.42
2022-12-23T01:31:40.753Z,23.42
2022-12-23T01:32:10.802Z,23.39
2022-12-23T01:32:40.770Z,23.42
2022-12-23T01:33:10.855Z,23.40
2022-12-23T01:33:40.978Z,23.42
2022-12-23T01:34:10.956Z,23.42
2022-12-23T01:34:41.028Z,23.40
2022-12-23T01:35:11.142Z,23.40
2022-12-23T01:35:41.199Z,23.39
2022-12-23T01:36:11.297Z,23.39
2022-12-23T01:36:41.376Z,23.39
2022-12-23T01:37:11.467Z,23.39
2022-12-23T01:37:41.556Z,23.40
2022-12-23T01:38:11.623Z,23.39
2022-12-23T01:38:41.733Z,23.37
2022-12-23T01:39:11.703Z,23.40
2022-12-23T01:39:41.785Z,23.40
2022-12-23T01:40:11.875Z,23.39
2022-12-23T01:40:41.943Z,23.37
2022-12-23T01:41:12.027Z,23.39
2022-12-23T01:41:42.120Z,23.40
2022-12-23T01:42:12.193Z,23.42
2022-12-23T01:42:42.275Z,23.40
2022-12-23T01:43:12.359Z,23.39
2022-12-23T01:43:42.472Z,23.37
2022-12-23T01:44:12.439Z,23.37
2022-12-23T01:44:42.491Z,23.40
2022-12-23T01:45:12.538Z,23.39
2022-12-23T01:45:42.671Z,23.40
2022-12-23T01:46:12.718Z,23.39
2022-12-23T01:46:42.691Z,23.37
2022-12-23T01:47:12.737Z,23.37
2022-12-23T01:47:42.794Z,23.39
2022-12-23T01:48:12.824Z,23.37
2022-12-23T01:48:42.945Z,23.37
2022-12-23T01:49:12.962Z,23.42
2022-12-23T01:49:43.007Z,23.37
2022-12-23T01:50:13.052Z,23.40
2022-12-23T01:50:43.113Z,23.39
2022-12-23T01:51:13.136Z,23.39
2022-12-23T01:51:43.180Z,23.36
2022-12-23T01:52:13.215Z,23.36
2022-12-23T01:52:43.269Z,23.36
2022-12-23T01:53:13.312Z,23.37
2022-12-23T01:53:43.391Z,23.39
2022-12-23T01:54:13.458Z,23.39
2022-12-23T01:54:43.528Z,23.36
2022-12-23T01:55:13.621Z,23.37
2022-12-23T01:55:43.695Z,23.36
2022-12-23T01:56:13.790Z,23.36
2022-12-23T01:56:43.875Z,23.37
2022-12-23T01:57:13.962Z,23.39
2022-12-23T01:57:44.047Z,23.36
2022-12-23T01:58:14.126Z,23.37
2022-12-23T01:58:44.230Z,23.36
2022-12-23T01:59:14.212Z,23.37
2022-12-23T01:59:44.299Z,23.36
2022-12-23T02:00:14.401Z,23.36
2022-12-23T02:00:44.465Z,23.37
2022-12-23T02:01:14.612Z,23.34
2022-12-23T02:01:44.817Z,23.36
2022-12-23T02:02:14.819Z,23.36
2022-12-23T02:02:44.765Z,23.36
2022-12-23T02:03:14.714Z,23.36
2022-12-23T02:03:44.990Z,23.34
2022-12-23T02:04:14.745Z,23.36
2022-12-23T02:04:44.836Z,23.34
2022-12-23T02:05:14.911Z,23.34
2022-12-23T02:05:44.992Z,23.37
2022-12-23T02:06:15.104Z,23.37
2022-12-23T02:06:45.170Z,23.39
2022-12-23T02:07:15.255Z,23.37
2022-12-23T02:07:45.343Z,23.34
2022-12-23T02:08:15.440Z,23.36
2022-12-23T02:08:45.546Z,23.34
2022-12-23T02:09:15.626Z,23.36
2022-12-23T02:09:45.705Z,23.36
2022-12-23T02:10:15.794Z,23.36
2022-12-23T02:10:45.879Z,23.34
2022-12-23T02:11:15.958Z,23.32
2022-12-23T02:11:46.038Z,23.32
2022-12-23T02:12:16.127Z,23.32
2022-12-23T02:12:46.212Z,23.34
2022-12-23T02:13:16.291Z,23.36
2022-12-23T02:13:46.427Z,23.32
2022-12-23T02:14:16.386Z,23.34
2022-12-23T02:14:46.479Z,23.33
2022-12-23T02:15:16.566Z,23.34
2022-12-23T02:15:46.649Z,23.34
2022-12-23T02:16:16.805Z,23.34
2022-12-23T02:16:46.903Z,23.34
2022-12-23T02:17:16.980Z,23.33
2022-12-23T02:17:46.951Z,23.33
2022-12-23T02:18:17.012Z,23.33
2022-12-23T02:18:47.133Z,23.34
2022-12-23T02:19:17.094Z,23.32
2022-12-23T02:19:47.191Z,23.33
2022-12-23T02:20:17.283Z,23.36
2022-12-23T02:20:47.370Z,23.32
2022-12-23T02:21:17.482Z,23.36
2022-12-23T02:21:47.549Z,23.33
2022-12-23T02:22:17.598Z,23.33
2022-12-23T02:22:47.680Z,23.36
2022-12-23T02:23:17.766Z,23.33
2022-12-23T02:23:47.920Z,23.32
2022-12-23T02:24:17.873Z,23.33
2022-12-23T02:24:47.958Z,23.34
2022-12-23T02:25:18.049Z,23.33
2022-12-23T02:25:48.137Z,23.30
2022-12-23T02:26:18.220Z,23.33
2022-12-23T02:26:48.309Z,23.32
2022-12-23T02:27:18.391Z,23.30
2022-12-23T02:27:48.488Z,23.32
2022-12-23T02:28:18.585Z,23.33
2022-12-23T02:28:48.732Z,23.36
2022-12-23T02:29:18.687Z,23.29
2022-12-23T02:29:48.779Z,23.32
2022-12-23T02:30:18.871Z,23.32
2022-12-23T02:30:48.951Z,23.33
2022-12-23T02:31:19.073Z,23.32
2022-12-23T02:31:49.063Z,23.32
2022-12-23T02:32:19.156Z,23.30
2022-12-23T02:32:49.227Z,23.32
2022-12-23T02:33:19.302Z,23.33
2022-12-23T02:33:49.435Z,23.33
2022-12-23T02:34:19.395Z,23.32
2022-12-23T02:34:49.477Z,23.32
2022-12-23T02:35:19.480Z,23.32
2022-12-23T02:35:49.560Z,23.32
2022-12-23T02:36:19.737Z,23.33
2022-12-23T02:36:49.660Z,23.34
2022-12-23T02:37:19.760Z,23.32
2022-12-23T02:37:49.822Z,23.32
2022-12-23T02:38:19.909Z,23.30
2022-12-23T02:38:50.031Z,23.30
2022-12-23T02:39:19.995Z,23.33
2022-12-23T02:39:50.079Z,23.30
2022-12-23T02:40:20.161Z,23.33
2022-12-23T02:40:50.256Z,23.30
2022-12-23T02:41:20.340Z,23.30
2022-12-23T02:41:50.415Z,23.32
2022-12-23T02:42:20.498Z,23.30
2022-12-23T02:42:50.622Z,23.30
2022-12-23T02:43:20.675Z,23.30
2022-12-23T02:43:50.783Z,23.30
2022-12-23T02:44:20.881Z,23.32
2022-12-23T02:44:50.967Z,23.30
2022-12-23T02:45:21.052Z,23.29
2022-12-23T02:45:51.200Z,23.30
2022-12-23T02:46:21.288Z,23.27
2022-12-23T02:46:51.256Z,23.27
2022-12-23T02:47:21.348Z,23.29
2022-12-23T02:47:51.420Z,23.29
2022-12-23T02:48:21.489Z,23.27
2022-12-23T02:48:51.615Z,23.29
2022-12-23T02:49:21.582Z,23.29
2022-12-23T02:49:51.671Z,23.29
2022-12-23T02:50:21.757Z,23.30
2022-12-23T02:50:51.836Z,23.30
2022-12-23T02:51:21.917Z,23.29
2022-12-23T02:51:52.102Z,23.27
2022-12-23T02:52:22.060Z,23.29
2022-12-23T02:52:52.160Z,23.27
2022-12-23T02:53:22.232Z,23.27
2022-12-23T02:53:52.369Z,23.29
2022-12-23T02:54:22.362Z,23.29
2022-12-23T02:54:52.352Z,23.29
2022-12-23T02:55:22.354Z,23.27
2022-12-23T02:55:52.420Z,23.29
2022-12-23T02:56:22.399Z,23.29
2022-12-23T02:56:52.424Z,23.29
2022-12-23T02:57:22.389Z,23.27
2022-12-23T02:57:52.414Z,23.27
2022-12-23T02:58:22.402Z,23.29
2022-12-23T02:58:52.413Z,23.29
2022-12-23T02:59:22.455Z,23.30
2022-12-23T02:59:52.478Z,23.27
2022-12-23T03:00:22.461Z,23.26
2022-12-23T03:00:52.487Z,23.27
2022-12-23T03:01:22.562Z,23.26
2022-12-23T03:01:52.824Z,23.27
2022-12-23T03:02:22.794Z,23.29
2022-12-23T03:02:52.851Z,23.27
2022-12-23T03:03:22.777Z,23.27
2022-12-23T03:03:52.818Z,23.27
2022-12-23T03:04:22.887Z,23.27
2022-12-23T03:04:52.875Z,23.23
2022-12-23T03:05:22.886Z,23.27
2022-12-23T03:05:52.892Z,23.27
2022-12-23T03:06:22.890Z,23.27
2022-12-23T03:06:52.906Z,23.25
2022-12-23T03:07:22.950Z,23.27
2022-12-23T03:07:52.924Z,23.26
2022-12-23T03:08:22.921Z,23.26
2022-12-23T03:09:32.084Z,23.23
2022-12-23T03:10:02.116Z,23.25
2022-12-23T03:10:32.148Z,23.22
2022-12-23T03:11:02.179Z,23.22
2022-12-23T03:11:32.220Z,23.23
2022-12-23T03:12:02.271Z,23.22
2022-12-23T03:12:32.318Z,23.22
2022-12-23T03:13:02.361Z,23.23
2022-12-23T03:13:32.399Z,23.23
2022-12-23T03:14:02.452Z,23.22
2022-12-23T03:14:32.521Z,23.23
2022-12-23T03:15:02.547Z,23.23
2022-12-23T03:15:32.634Z,23.25
2022-12-23T03:16:02.693Z,23.22
2022-12-23T03:16:32.657Z,23.23
2022-12-23T03:17:02.700Z,23.25
2022-12-23T03:17:32.739Z,23.23
2022-12-23T03:18:02.795Z,23.25
2022-12-23T03:18:32.827Z,23.23
2022-12-23T03:19:02.873Z,23.22
2022-12-23T03:19:32.971Z,23.25
2022-12-23T03:20:03.038Z,23.26
2022-12-23T03:20:33.125Z,23.25
2022-12-23T03:21:03.216Z,23.25
2022-12-23T03:21:33.295Z,23.23
2022-12-23T03:22:03.372Z,23.25
2022-12-23T03:22:33.477Z,23.26
2022-12-23T03:23:03.562Z,23.22
2022-12-23T03:23:33.625Z,23.26
2022-12-23T03:24:03.713Z,23.25
2022-12-23T03:24:33.810Z,23.23
2022-12-23T03:25:03.899Z,23.26
2022-12-23T03:25:33.982Z,23.26
2022-12-23T03:26:04.059Z,23.26
2022-12-23T03:26:34.136Z,23.26
2022-12-23T03:27:04.228Z,23.22
2022-12-23T03:27:34.315Z,23.25
2022-12-23T03:28:04.383Z,23.25
2022-12-23T03:28:34.499Z,23.25
2022-12-23T03:29:04.493Z,23.25
2022-12-23T03:29:34.588Z,23.25
2022-12-23T03:30:04.667Z,23.22
2022-12-23T03:30:34.754Z,23.25
2022-12-23T03:31:04.877Z,23.25
2022-12-23T03:31:34.947Z,23.26
2022-12-23T03:32:04.930Z,23.23
2022-12-23T03:32:35.004Z,23.23
2022-12-23T03:33:05.085Z,23.23
2022-12-23T03:33:35.179Z,23.25
2022-12-23T03:34:05.274Z,23.23
2022-12-23T03:34:35.365Z,23.23
2022-12-23T03:35:05.433Z,23.25
2022-12-23T03:35:35.526Z,23.23
2022-12-23T03:36:05.611Z,23.22
2022-12-23T03:36:35.688Z,23.23
2022-12-23T03:37:05.773Z,23.25
2022-12-23T03:37:35.858Z,23.23
2022-12-23T03:38:05.981Z,23.22
2022-12-23T03:38:36.067Z,23.23
2022-12-23T03:39:06.152Z,23.22
2022-12-23T03:39:36.230Z,23.22
2022-12-23T03:40:06.308Z,23.23
2022-12-23T03:40:36.418Z,23.22
2022-12-23T03:41:06.497Z,23.22
2022-12-23T03:41:36.560Z,23.21
2022-12-23T03:42:06.662Z,23.22
2022-12-23T03:42:36.737Z,23.23
2022-12-23T03:43:06.810Z,23.23
2022-12-23T03:43:36.804Z,23.22
2022-12-23T03:44:06.913Z,23.21
2022-12-23T03:44:36.993Z,23.21
2022-12-23T03:45:39.101Z,23.25
2022-12-23T03:46:07.313Z,23.25
2022-12-23T03:46:37.408Z,23.25
2022-12-23T03:47:07.379Z,23.21
2022-12-23T03:47:37.466Z,23.19
2022-12-23T03:48:07.551Z,23.23
2022-12-23T03:48:37.651Z,23.18
2022-12-23T03:49:07.715Z,23.22
2022-12-23T03:49:37.798Z,23.23
2022-12-23T03:50:07.911Z,23.23
2022-12-23T03:50:37.973Z,23.21
2022-12-23T03:51:08.069Z,23.21
2022-12-23T03:51:38.133Z,23.23
2022-12-23T03:52:08.222Z,23.22
2022-12-23T03:52:38.297Z,23.22
2022-12-23T03:53:08.402Z,23.23
2022-12-23T03:53:38.454Z,23.22
2022-12-23T03:54:08.532Z,23.21
2022-12-23T03:54:38.617Z,23.21
2022-12-23T03:55:08.706Z,23.19
2022-12-23T03:55:38.780Z,23.21
2022-12-23T03:56:08.847Z,23.22
2022-12-23T03:56:38.932Z,23.19
2022-12-23T03:57:09.029Z,23.19
2022-12-23T03:57:39.102Z,23.19
2022-12-23T03:58:09.189Z,23.21
2022-12-23T03:58:39.263Z,23.22
2022-12-23T03:59:09.355Z,23.21
2022-12-23T03:59:39.451Z,23.21
2022-12-23T04:00:09.522Z,23.22
2022-12-23T04:00:39.605Z,23.19
2022-12-23T04:01:09.849Z,23.21
2022-12-23T04:01:39.825Z,23.21
2022-12-23T04:02:09.983Z,23.18
2022-12-23T04:02:39.988Z,23.19
2022-12-23T04:03:09.915Z,23.18
2022-12-23T04:03:40.076Z,23.18
2022-12-23T04:04:10.179Z,23.22
2022-12-23T04:04:40.131Z,23.19
2022-12-23T04:05:10.244Z,23.19
2022-12-23T04:05:40.222Z,23.19
2022-12-23T04:06:10.325Z,23.19
2022-12-23T04:06:40.409Z,23.18
2022-12-23T04:07:10.493Z,23.19
2022-12-23T04:07:40.573Z,23.16
2022-12-23T04:08:10.659Z,23.19
2022-12-23T04:08:40.769Z,23.21
2022-12-23T04:09:10.813Z,23.19
2022-12-23T04:09:40.851Z,23.18
2022-12-23T04:10:10.907Z,23.18
2022-12-23T04:10:40.951Z,23.16
2022-12-23T04:11:10.980Z,23.18
2022-12-23T04:11:41.021Z,23.19
2022-12-23T04:12:11.071Z,23.19
2022-12-23T04:12:41.103Z,23.18
2022-12-23T04:13:11.137Z,23.19
2022-12-23T04:13:41.193Z,23.16
2022-12-23T04:14:11.204Z,23.18
2022-12-23T04:14:41.252Z,23.19
2022-12-23T04:15:13.318Z,23.16
2022-12-23T04:15:41.448Z,23.18
2022-12-23T04:16:11.485Z,23.18
2022-12-23T04:16:41.509Z,23.16
2022-12-23T04:17:11.560Z,23.16
2022-12-23T04:17:41.591Z,23.18
2022-12-23T04:18:11.645Z,23.18
2022-12-23T04:18:41.674Z,23.18
2022-12-23T04:19:11.737Z,23.18
2022-12-23T04:19:41.824Z,23.16
2022-12-23T04:20:11.916Z,23.18
2022-12-23T04:20:41.992Z,23.18
2022-12-23T04:21:12.072Z,23.18
2022-12-23T04:21:42.161Z,23.21
2022-12-23T04:22:12.247Z,23.21
2022-12-23T04:22:42.325Z,23.19
2022-12-23T04:23:12.407Z,23.19
2022-12-23T04:23:42.499Z,23.18
2022-12-23T04:24:12.607Z,23.18
2022-12-23T04:24:42.681Z,23.18
2022-12-23T04:25:12.807Z,23.19
2022-12-23T04:25:42.767Z,23.15
2022-12-23T04:26:12.859Z,23.18
2022-12-23T04:26:42.960Z,23.16
2022-12-23T04:27:13.036Z,23.19
2022-12-23T04:27:43.119Z,23.18
2022-12-23T04:28:13.197Z,23.16
2022-12-23T04:28:43.270Z,23.16
2022-12-23T04:29:13.401Z,23.18
2022-12-23T04:29:43.362Z,23.15
2022-12-23T04:30:13.461Z,23.15
2022-12-23T04:30:43.521Z,23.15
2022-12-23T04:31:13.744Z,23.15
2022-12-23T04:31:43.675Z,23.15
2022-12-23T04:32:13.650Z,23.16
2022-12-23T04:32:43.742Z,23.15
2022-12-23T04:33:13.824Z,23.16
2022-12-23T04:33:43.922Z,23.15
2022-12-23T04:34:14.020Z,23.13
2022-12-23T04:34:44.094Z,23.13
2022-12-23T04:35:14.177Z,23.12
2022-12-23T04:35:44.273Z,23.15
2022-12-23T04:36:14.346Z,23.16
2022-12-23T04:36:44.447Z,23.15
2022-12-23T04:37:14.532Z,23.15
2022-12-23T04:37:44.612Z,23.15
2022-12-23T04:38:14.695Z,23.16
2022-12-23T04:38:44.775Z,23.13
2022-12-23T04:39:14.876Z,23.16
2022-12-23T04:39:44.986Z,23.13
2022-12-23T04:40:15.051Z,23.13
2022-12-23T04:40:45.129Z,23.15
2022-12-23T04:41:15.232Z,23.18
2022-12-23T04:41:45.292Z,23.15
2022-12-23T04:42:15.375Z,23.15
2022-12-23T04:42:45.462Z,23.15
2022-12-23T04:43:15.546Z,23.15
2022-12-23T04:43:52.538Z,23.12
2022-12-23T04:44:15.730Z,23.12
2022-12-23T04:44:45.704Z,23.13
2022-12-23T04:45:15.795Z,23.12
2022-12-23T04:45:45.873Z,23.13
2022-12-23T04:46:15.989Z,23.16
2022-12-23T04:46:46.116Z,23.12
2022-12-23T04:47:16.153Z,23.12
2022-12-23T04:47:46.231Z,23.12
2022-12-23T04:48:16.320Z,23.15
2022-12-23T04:48:46.423Z,23.13
2022-12-23T04:49:16.506Z,23.13
2022-12-23T04:49:46.583Z,23.12
2022-12-23T04:50:16.677Z,23.12
2022-12-23T04:50:46.750Z,23.12
2022-12-23T04:51:16.854Z,23.12
2022-12-23T04:51:46.920Z,23.13
2022-12-23T04:52:16.999Z,23.13
2022-12-23T04:52:47.088Z,23.13
2022-12-23T04:53:17.184Z,23.12
2022-12-23T04:53:47.306Z,23.12
2022-12-23T04:54:17.267Z,23.09
2022-12-23T04:54:47.404Z,23.11
2022-12-23T04:55:17.458Z,23.12
2022-12-23T04:55:47.541Z,23.12
2022-12-23T04:56:17.632Z,23.13
2022-12-23T04:56:47.705Z,23.13
2022-12-23T04:57:17.789Z,23.12
2022-12-23T04:57:47.873Z,23.12
2022-12-23T04:58:17.947Z,23.12
2022-12-23T04:58:48.047Z,23.12
2022-12-23T04:59:18.127Z,23.11
2022-12-23T04:59:48.221Z,23.12
2022-12-23T05:00:18.303Z,23.12
2022-12-23T05:00:48.457Z,23.12
2022-12-23T05:01:18.496Z,23.12
2022-12-23T05:01:48.687Z,23.12
2022-12-23T05:02:18.679Z,23.12
2022-12-23T05:02:48.773Z,23.11
2022-12-23T05:03:18.878Z,23.09
2022-12-23T05:03:48.751Z,23.11
2022-12-23T05:04:18.903Z,23.11
2022-12-23T05:04:48.886Z,23.12
2022-12-23T05:05:18.983Z,23.09
2022-12-23T05:05:49.072Z,23.12
2022-12-23T05:06:19.156Z,23.12
2022-12-23T05:06:49.252Z,23.11
2022-12-23T05:07:19.324Z,23.11
2022-12-23T05:07:49.410Z,23.12
2022-12-23T05:08:19.501Z,23.09
2022-12-23T05:08:49.618Z,23.09
2022-12-23T05:09:19.684Z,23.09
2022-12-23T05:09:49.717Z,23.09
2022-12-23T05:10:19.768Z,23.12
2022-12-23T05:10:49.816Z,23.09
2022-12-23T05:11:19.840Z,23.07
2022-12-23T05:11:49.867Z,23.09
2022-12-23T05:12:19.909Z,23.07
2022-12-23T05:12:49.945Z,23.07
2022-12-23T05:13:19.991Z,23.07
2022-12-23T05:13:50.056Z,23.09
2022-12-23T05:14:20.086Z,23.09
2022-12-23T05:14:50.135Z,23.11
2022-12-23T05:15:20.176Z,23.13
2022-12-23T05:15:50.285Z,23.13
2022-12-23T05:16:20.383Z,23.07
2022-12-23T05:16:50.547Z,23.09
2022-12-23T05:17:20.498Z,23.09
2022-12-23T05:17:50.541Z,23.09
2022-12-23T05:18:20.577Z,23.07
2022-12-23T05:18:50.632Z,23.09
2022-12-23T05:19:20.703Z,23.11
2022-12-23T05:19:50.794Z,23.09
2022-12-23T05:20:20.867Z,23.07
2022-12-23T05:20:50.957Z,23.09
2022-12-23T05:21:21.029Z,23.07
2022-12-23T05:21:51.113Z,23.07
2022-12-23T05:22:21.208Z,23.09
2022-12-23T05:22:51.286Z,23.07
2022-12-23T05:23:21.368Z,23.09
2022-12-23T05:23:51.482Z,23.07
2022-12-23T05:24:21.464Z,23.06
2022-12-23T05:24:51.542Z,23.11
2022-12-23T05:25:21.649Z,23.09
2022-12-23T05:25:51.723Z,23.09
2022-12-23T05:26:21.808Z,23.07
2022-12-23T05:26:59.482Z,23.09
2022-12-23T05:27:21.965Z,23.09
2022-12-23T05:27:52.052Z,23.06
2022-12-23T05:28:22.177Z,23.11
2022-12-23T05:28:52.253Z,23.05
2022-12-23T05:29:22.343Z,23.06
2022-12-23T05:29:52.417Z,23.07
2022-12-23T05:30:22.515Z,23.05
2022-12-23T05:30:52.609Z,23.06
2022-12-23T05:31:22.696Z,23.07
2022-12-23T05:31:52.852Z,23.05
2022-12-23T05:32:22.855Z,23.03
2022-12-23T05:32:52.932Z,23.05
2022-12-23T05:33:23.088Z,23.05
2022-12-23T05:33:53.238Z,23.06
2022-12-23T05:34:23.150Z,23.06
2022-12-23T05:34:53.226Z,23.05
2022-12-23T05:35:23.299Z,23.05
2022-12-23T05:35:53.378Z,23.05
2022-12-23T05:36:23.458Z,23.07
2022-12-23T05:36:53.549Z,23.05
2022-12-23T05:37:23.638Z,23.06
2022-12-23T05:37:53.713Z,23.05
2022-12-23T05:38:23.790Z,23.07
2022-12-23T05:38:53.901Z,23.06
2022-12-23T05:39:23.874Z,23.05
2022-12-23T05:39:53.945Z,23.05
2022-12-23T05:40:24.943Z,23.06
2022-12-23T05:40:54.101Z,23.05
2022-12-23T05:41:24.185Z,23.03
2022-12-23T05:41:54.268Z,23.03
2022-12-23T05:42:24.345Z,23.06
2022-12-23T05:42:54.429Z,23.03
2022-12-23T05:43:24.511Z,23.03
2022-12-23T05:43:54.620Z,23.06
2022-12-23T05:44:24.704Z,23.05
2022-12-23T05:44:54.780Z,23.05
2022-12-23T05:45:24.885Z,23.02
2022-12-23T05:45:55.073Z,23.03
2022-12-23T05:46:27.024Z,23.01
2022-12-23T05:46:55.001Z,23.03
2022-12-23T05:47:25.092Z,23.02
2022-12-23T05:47:55.167Z,23.03
2022-12-23T05:48:25.240Z,23.06
2022-12-23T05:48:55.336Z,23.05
2022-12-23T05:49:25.454Z,23.03
2022-12-23T05:49:55.541Z,23.03
2022-12-23T05:50:25.606Z,23.06
2022-12-23T05:50:55.704Z,23.05
2022-12-23T05:51:25.786Z,23.05
2022-12-23T05:51:55.880Z,23.06
2022-12-23T05:52:25.952Z,23.05
2022-12-23T05:52:56.031Z,23.06
2022-12-23T05:53:26.105Z,23.03
2022-12-23T05:53:56.204Z,23.05
2022-12-23T05:54:26.264Z,23.03
2022-12-23T05:54:56.348Z,23.05
2022-12-23T05:55:26.456Z,23.03
2022-12-23T05:55:56.518Z,23.05
2022-12-23T05:56:26.608Z,23.03
2022-12-23T05:56:56.696Z,23.03
2022-12-23T05:57:26.760Z,23.03
2022-12-23T05:57:56.845Z,23.02
2022-12-23T05:58:26.929Z,23.03
2022-12-23T05:58:57.024Z,23.05
2022-12-23T05:59:31.011Z,23.03
2022-12-23T05:59:57.144Z,23.02
2022-12-23T06:00:27.228Z,23.03
2022-12-23T06:00:57.313Z,23.03
2022-12-23T06:01:27.424Z,23.03
2022-12-23T06:01:57.653Z,23.03
2022-12-23T06:02:27.728Z,23.02
2022-12-23T06:02:57.833Z,23.05
2022-12-23T06:03:27.771Z,23.02
2022-12-23T06:03:57.823Z,23.05
2022-12-23T06:04:27.786Z,23.01
2022-12-23T06:04:57.831Z,23.05
2022-12-23T06:05:27.911Z,23.03
2022-12-23T06:05:57.999Z,23.02
2022-12-23T06:06:28.076Z,23.05
2022-12-23T06:06:58.167Z,23.03
2022-12-23T06:07:28.245Z,23.03
2022-12-23T06:07:58.353Z,23.01
2022-12-23T06:08:28.417Z,23.02
2022-12-23T06:09:00.095Z,23.03
2022-12-23T06:09:28.583Z,23.03
2022-12-23T06:09:58.613Z,23.02
2022-12-23T06:10:28.660Z,23.01
2022-12-23T06:10:58.707Z,23.02
2022-12-23T06:11:28.786Z,23.01
2022-12-23T06:11:58.808Z,23.02
2022-12-23T06:12:28.853Z,23.02
2022-12-23T06:12:58.974Z,23.03
2022-12-23T06:13:28.974Z,22.99
2022-12-23T06:13:59.008Z,23.02
2022-12-23T06:14:29.705Z,23.02
2022-12-23T06:14:59.123Z,23.01
2022-12-23T06:15:29.156Z,22.99
2022-12-23T06:15:59.182Z,23.02
2022-12-23T06:16:29.278Z,23.01
2022-12-23T06:16:59.409Z,23.01
2022-12-23T06:17:29.377Z,23.01
2022-12-23T06:17:59.410Z,23.01
2022-12-23T06:18:29.446Z,22.99
2022-12-23T06:18:59.503Z,22.99
2022-12-23T06:19:29.586Z,22.99
2022-12-23T06:19:59.665Z,23.01
2022-12-23T06:20:29.737Z,23.03
2022-12-23T06:20:59.818Z,22.99
2022-12-23T06:21:29.896Z,22.99
2022-12-23T06:21:59.984Z,23.01
2022-12-23T06:22:30.063Z,23.02
2022-12-23T06:23:00.144Z,22.99
2022-12-23T06:23:30.221Z,22.99
2022-12-23T06:24:00.309Z,23.02
2022-12-23T06:24:30.398Z,22.99
2022-12-23T06:25:00.504Z,23.01
2022-12-23T06:25:30.575Z,22.99
2022-12-23T06:26:00.679Z,23.01
2022-12-23T06:26:30.774Z,22.98
2022-12-23T06:27:00.824Z,22.99
2022-12-23T06:27:30.904Z,22.95
2022-12-23T06:28:00.986Z,22.99
2022-12-23T06:28:31.095Z,22.99